createdAt,value
2019-05-21T00:00:01.343Z,14.20
2019-05-21T00:02:28.908Z,14.20
2019-05-21T00:04:56.447Z,14.20
2019-05-21T00:07:24.012Z,14.20
2019-05-21T00:09:51.557Z,14.30
2019-05-21T00:12:19.196Z,14.20
2019-05-21T00:14:46.738Z,14.10
2019-05-21T00:17:14.307Z,14.00
2019-05-21T00:19:42.168Z,14.10
2019-05-21T00:22:09.729Z,14.00
2019-05-21T00:24:37.343Z,14.10
2019-05-21T00:27:04.981Z,14.20
2019-05-21T00:29:50.882Z,14.30
2019-05-21T00:32:36.740Z,14.20
2019-05-21T00:35:24.179Z,14.10
2019-05-21T00:38:10.134Z,14.10
2019-05-21T00:40:56.123Z,13.90
2019-05-21T00:43:37.343Z,13.80
2019-05-21T00:46:04.877Z,13.90
2019-05-21T00:48:32.445Z,13.90
2019-05-21T00:50:59.985Z,13.90
2019-05-21T00:53:27.557Z,13.90
2019-05-21T00:55:55.098Z,14.00
2019-05-21T00:58:22.668Z,13.90
2019-05-21T01:00:50.196Z,13.80
2019-05-21T01:03:17.756Z,13.70
2019-05-21T01:05:45.300Z,13.70
2019-05-21T01:08:12.864Z,13.70
2019-05-21T01:10:40.874Z,13.80
2019-05-21T01:13:08.432Z,13.80
2019-05-21T01:15:36.042Z,13.80
2019-05-21T01:18:03.585Z,13.80
2019-05-21T01:20:31.141Z,13.90
2019-05-21T01:22:58.792Z,13.70
2019-05-21T01:25:26.352Z,13.70
2019-05-21T01:27:53.893Z,13.80
2019-05-21T01:30:21.460Z,13.90
2019-05-21T01:32:49.010Z,13.80
2019-05-21T01:35:17.650Z,13.70
2019-05-21T01:37:45.308Z,13.80
2019-05-21T01:40:12.872Z,13.70
2019-05-21T01:42:40.416Z,13.90
2019-05-21T01:45:08.241Z,13.90
2019-05-21T01:47:35.777Z,13.90
2019-05-21T01:50:04.218Z,13.90
2019-05-21T01:52:31.753Z,14.00
2019-05-21T01:54:59.372Z,14.10
2019-05-21T01:57:26.916Z,14.00
2019-05-21T01:59:54.481Z,14.00
2019-05-21T02:02:22.261Z,13.80
2019-05-21T02:04:49.829Z,13.90
2019-05-21T02:07:18.221Z,13.90
2019-05-21T02:09:57.800Z,13.90
2019-05-21T02:12:25.806Z,13.70
2019-05-21T02:14:53.359Z,13.70
2019-05-21T02:17:20.908Z,13.70
2019-05-21T02:19:48.534Z,13.70
2019-05-21T02:22:16.109Z,13.50
2019-05-21T02:24:43.956Z,13.70
2019-05-21T02:27:11.504Z,13.70
2019-05-21T02:29:39.080Z,13.70
2019-05-21T02:32:06.649Z,13.60
2019-05-21T02:34:34.190Z,13.60
2019-05-21T02:37:05.910Z,13.50
2019-05-21T02:39:31.017Z,13.60
2019-05-21T02:41:58.586Z,13.70
2019-05-21T02:44:26.586Z,13.50
2019-05-21T02:46:54.153Z,13.50
2019-05-21T02:49:21.681Z,13.50
2019-05-21T02:51:49.255Z,13.60
2019-05-21T02:54:16.784Z,13.70
2019-05-21T02:56:44.350Z,13.70
2019-05-21T02:59:11.889Z,13.80
2019-05-21T03:01:47.008Z,13.70
2019-05-21T03:04:14.550Z,13.70
2019-05-21T03:06:42.135Z,13.70
2019-05-21T03:09:09.650Z,13.80
2019-05-21T03:11:37.508Z,13.60
2019-05-21T03:14:05.046Z,13.50
2019-05-21T03:16:32.614Z,13.60
2019-05-21T03:19:00.601Z,13.70
2019-05-21T03:21:28.158Z,13.60
2019-05-21T03:23:55.703Z,13.60
2019-05-21T03:26:23.294Z,13.60
2019-05-21T03:28:50.826Z,13.60
2019-05-21T03:31:18.413Z,13.70
2019-05-21T03:33:45.990Z,13.70
2019-05-21T03:36:29.664Z,13.70
2019-05-21T03:38:42.805Z,13.70
2019-05-21T03:41:10.362Z,13.80
2019-05-21T03:43:37.986Z,13.80
2019-05-21T03:46:05.524Z,13.90
2019-05-21T03:48:33.088Z,13.80
2019-05-21T03:51:00.652Z,13.70
2019-05-21T03:53:28.413Z,13.70
2019-05-21T03:55:55.959Z,13.70
2019-05-21T03:58:23.522Z,13.70
2019-05-21T04:00:51.079Z,13.80
2019-05-21T04:03:18.641Z,13.80
2019-05-21T04:05:46.186Z,13.70
2019-05-21T04:08:13.749Z,13.70
2019-05-21T04:10:41.314Z,13.50
2019-05-21T04:13:09.221Z,13.60
2019-05-21T04:15:44.924Z,13.60
2019-05-21T04:18:16.852Z,13.70
2019-05-21T04:20:44.461Z,13.70
2019-05-21T04:23:12.171Z,13.70
2019-05-21T04:25:39.794Z,13.60
2019-05-21T04:28:07.402Z,13.40
2019-05-21T04:30:35.114Z,13.50
2019-05-21T04:33:02.657Z,13.50
2019-05-21T04:35:30.222Z,13.40
2019-05-21T04:37:57.758Z,13.60
2019-05-21T04:40:25.337Z,13.50
2019-05-21T04:42:52.878Z,13.60
2019-05-21T04:45:20.485Z,13.60
2019-05-21T04:47:48.409Z,13.50
2019-05-21T04:50:15.969Z,13.50
2019-05-21T04:52:43.841Z,13.50
2019-05-21T04:55:11.704Z,13.30
2019-05-21T04:57:39.245Z,13.40
2019-05-21T05:00:06.806Z,13.50
2019-05-21T05:02:34.337Z,13.40
2019-05-21T05:05:01.912Z,13.30
2019-05-21T05:07:29.451Z,13.50
2019-05-21T05:09:57.269Z,13.40
2019-05-21T05:12:24.804Z,13.40
2019-05-21T05:14:52.377Z,13.40
2019-05-21T05:17:20.256Z,13.50
2019-05-21T05:19:47.816Z,13.40
2019-05-21T05:22:15.354Z,13.40
2019-05-21T05:24:42.920Z,13.40
2019-05-21T05:27:10.453Z,13.60
2019-05-21T05:29:38.357Z,13.50
2019-05-21T05:32:05.896Z,13.50
2019-05-21T05:34:33.510Z,13.30
2019-05-21T05:37:01.449Z,13.20
2019-05-21T05:39:29.009Z,13.30
2019-05-21T05:41:56.549Z,13.40
2019-05-21T05:44:24.080Z,13.30
2019-05-21T05:46:51.649Z,13.30
2019-05-21T05:49:30.201Z,13.40
2019-05-21T05:51:58.069Z,13.40
2019-05-21T05:54:25.607Z,13.50
2019-05-21T05:56:53.226Z,13.60
2019-05-21T05:59:20.784Z,13.60
2019-05-21T06:01:48.378Z,13.50
2019-05-21T06:04:15.988Z,13.40
2019-05-21T06:06:43.557Z,13.50
2019-05-21T06:09:11.088Z,13.50
2019-05-21T06:11:38.685Z,13.50
2019-05-21T06:14:06.229Z,13.50
2019-05-21T06:16:33.820Z,13.40
2019-05-21T06:19:01.405Z,13.50
2019-05-21T06:21:29.297Z,13.30
2019-05-21T06:23:56.829Z,13.50
2019-05-21T06:26:24.405Z,13.30
2019-05-21T06:28:51.936Z,13.20
2019-05-21T06:31:19.526Z,13.30
2019-05-21T06:33:47.056Z,13.30
2019-05-21T06:36:14.592Z,13.30
2019-05-21T06:38:42.244Z,13.30
2019-05-21T06:41:09.818Z,13.40
2019-05-21T06:43:37.386Z,13.50
2019-05-21T06:46:05.021Z,13.60
2019-05-21T06:48:32.976Z,13.40
2019-05-21T06:51:00.545Z,13.30
2019-05-21T06:53:28.108Z,13.30
2019-05-21T06:55:55.653Z,13.40
2019-05-21T06:58:23.223Z,13.30
2019-05-21T07:00:50.998Z,13.20
2019-05-21T07:03:18.565Z,13.00
2019-05-21T07:05:58.499Z,13.00
2019-05-21T07:08:15.421Z,13.20
2019-05-21T07:10:43.257Z,13.30
2019-05-21T07:13:10.822Z,13.30
2019-05-21T07:15:38.360Z,13.30
2019-05-21T07:18:05.924Z,13.30
2019-05-21T07:20:33.462Z,13.30
2019-05-21T07:23:01.135Z,13.20
2019-05-21T07:25:28.838Z,13.30
2019-05-21T07:27:56.400Z,13.30
2019-05-21T07:30:24.257Z,13.20
2019-05-21T07:32:52.382Z,13.20
2019-05-21T07:35:20.467Z,13.20
2019-05-21T07:37:48.084Z,13.00
2019-05-21T07:40:15.920Z,13.10
2019-05-21T07:42:43.797Z,13.20
2019-05-21T07:45:11.333Z,13.10
2019-05-21T07:47:38.941Z,13.20
2019-05-21T07:50:06.556Z,13.20
2019-05-21T07:52:34.428Z,13.20
2019-05-21T07:55:01.980Z,13.30
2019-05-21T07:57:29.512Z,13.10
2019-05-21T07:59:57.076Z,13.20
2019-05-21T08:02:24.689Z,13.20
2019-05-21T08:04:52.490Z,13.20
2019-05-21T08:07:20.025Z,13.20
2019-05-21T08:09:47.600Z,13.20
2019-05-21T08:12:35.579Z,13.20
2019-05-21T08:14:44.549Z,13.30
2019-05-21T08:17:12.084Z,13.30
2019-05-21T08:19:39.944Z,13.40
2019-05-21T08:22:07.486Z,13.40
2019-05-21T08:24:35.068Z,13.20
2019-05-21T08:27:02.606Z,13.10
2019-05-21T08:29:30.489Z,13.20
2019-05-21T08:31:58.025Z,13.20
2019-05-21T08:34:25.595Z,13.20
2019-05-21T08:36:53.128Z,13.30
2019-05-21T08:39:29.003Z,13.30
2019-05-21T08:41:49.978Z,13.30
2019-05-21T08:44:17.604Z,13.30
2019-05-21T08:46:45.165Z,13.40
2019-05-21T08:49:12.728Z,13.40
2019-05-21T08:51:40.260Z,13.30
2019-05-21T08:54:08.137Z,13.50
2019-05-21T08:56:35.681Z,14.20
2019-05-21T08:59:03.241Z,14.10
2019-05-21T09:01:30.782Z,13.90
2019-05-21T09:03:58.713Z,13.90
2019-05-21T09:06:26.296Z,13.80
2019-05-21T09:08:54.214Z,13.80
2019-05-21T09:11:21.988Z,13.70
2019-05-21T09:13:49.553Z,13.60
2019-05-21T09:16:17.088Z,13.60
2019-05-21T09:18:44.657Z,13.70
2019-05-21T09:21:12.197Z,13.70
2019-05-21T09:23:39.742Z,13.70
2019-05-21T09:26:07.317Z,13.60
2019-05-21T09:28:34.855Z,13.50
2019-05-21T09:31:02.438Z,13.50
2019-05-21T09:33:30.033Z,13.60
2019-05-21T09:35:57.594Z,13.70
2019-05-21T09:38:25.128Z,13.70
2019-05-21T09:40:52.701Z,13.70
2019-05-21T09:43:20.553Z,13.80
2019-05-21T09:45:48.147Z,13.70
2019-05-21T09:48:15.684Z,13.70
2019-05-21T09:50:43.260Z,13.70
2019-05-21T09:53:10.786Z,13.70
2019-05-21T09:55:38.361Z,13.70
2019-05-21T09:58:07.549Z,13.50
2019-05-21T10:00:36.757Z,13.50
2019-05-21T10:03:08.489Z,13.60
2019-05-21T10:05:36.057Z,13.60
2019-05-21T10:08:04.344Z,13.50
2019-05-21T10:10:31.919Z,13.70
2019-05-21T10:12:59.456Z,13.70
2019-05-21T10:15:27.030Z,13.70
2019-05-21T10:17:54.569Z,13.70
2019-05-21T10:20:22.134Z,13.80
2019-05-21T10:22:49.675Z,13.50
2019-05-21T10:25:17.243Z,13.60
2019-05-21T10:27:45.132Z,13.70
2019-05-21T10:30:12.865Z,13.60
2019-05-21T10:32:40.396Z,13.60
2019-05-21T10:35:07.977Z,13.70
2019-05-21T10:37:35.512Z,13.70
2019-05-21T10:40:04.849Z,13.60
2019-05-21T10:42:32.463Z,13.70
2019-05-21T10:45:00.026Z,13.70
2019-05-21T10:47:27.561Z,13.70
2019-05-21T10:49:55.133Z,13.80
2019-05-21T10:52:22.665Z,13.80
2019-05-21T10:54:50.240Z,13.90
2019-05-21T10:57:17.782Z,13.70
2019-05-21T10:59:45.394Z,13.70
2019-05-21T11:02:14.688Z,13.70
2019-05-21T11:04:43.885Z,13.70
2019-05-21T11:07:13.290Z,13.70
2019-05-21T11:09:40.943Z,13.80
2019-05-21T11:12:08.873Z,13.70
2019-05-21T11:14:36.408Z,13.70
2019-05-21T11:17:05.061Z,13.60
2019-05-21T11:19:32.596Z,13.60
2019-05-21T11:22:00.165Z,13.70
2019-05-21T11:24:27.698Z,13.60
2019-05-21T11:26:55.305Z,13.70
2019-05-21T11:29:22.830Z,13.70
2019-05-21T11:31:57.287Z,13.70
2019-05-21T11:34:19.666Z,13.90
2019-05-21T11:36:47.229Z,13.90
2019-05-21T11:39:14.765Z,13.90
2019-05-21T11:41:42.325Z,13.90
2019-05-21T11:44:09.860Z,13.90
2019-05-21T11:46:37.428Z,13.90
2019-05-21T11:49:04.960Z,13.90
2019-05-21T11:51:32.519Z,13.90
2019-05-21T11:54:00.373Z,14.00
2019-05-21T11:56:27.936Z,14.00
2019-05-21T11:58:55.473Z,13.90
2019-05-21T12:01:23.033Z,13.90
2019-05-21T12:03:50.919Z,14.00
2019-05-21T12:06:19.379Z,14.10
2019-05-21T12:08:56.246Z,14.00
2019-05-21T12:11:16.413Z,14.00
2019-05-21T12:13:44.320Z,14.10
2019-05-21T12:16:11.885Z,14.10
2019-05-21T12:18:39.424Z,14.10
2019-05-21T12:21:06.990Z,14.00
2019-05-21T12:23:34.593Z,13.70
2019-05-21T12:26:02.157Z,13.80
2019-05-21T12:28:29.695Z,13.90
2019-05-21T12:30:57.293Z,13.90
2019-05-21T12:33:24.891Z,13.90
2019-05-21T12:35:52.485Z,13.90
2019-05-21T12:38:20.022Z,14.00
2019-05-21T12:40:47.557Z,14.00
2019-05-21T12:43:15.194Z,13.90
2019-05-21T12:45:42.730Z,13.90
2019-05-21T12:48:10.297Z,13.90
2019-05-21T12:50:37.831Z,13.80
2019-05-21T12:53:05.392Z,13.90
2019-05-21T12:55:32.933Z,14.00
2019-05-21T12:58:00.502Z,14.00
2019-05-21T13:00:31.849Z,14.00
2019-05-21T13:02:59.444Z,14.10
2019-05-21T13:05:26.980Z,14.10
2019-05-21T13:07:54.544Z,14.20
2019-05-21T13:10:22.080Z,14.10
2019-05-21T13:12:49.684Z,14.10
2019-05-21T13:15:17.284Z,13.90
2019-05-21T13:17:44.861Z,14.00
2019-05-21T13:20:12.773Z,14.10
2019-05-21T13:22:40.343Z,14.10
2019-05-21T13:25:07.879Z,14.10
2019-05-21T13:27:35.447Z,14.10
2019-05-21T13:30:04.315Z,14.10
2019-05-21T13:32:31.913Z,14.10
2019-05-21T13:34:59.448Z,14.20
2019-05-21T13:37:27.012Z,14.30
2019-05-21T13:39:54.554Z,14.30
2019-05-21T13:42:22.117Z,14.30
2019-05-21T13:44:49.651Z,14.20
2019-05-21T13:47:17.303Z,14.20
2019-05-21T13:49:44.969Z,14.30
2019-05-21T13:52:12.681Z,14.30
2019-05-21T13:54:40.216Z,14.30
2019-05-21T13:57:08.073Z,14.30
2019-05-21T13:59:35.645Z,14.40
2019-05-21T14:02:04.949Z,14.40
2019-05-21T14:04:32.644Z,14.40
2019-05-21T14:07:00.181Z,14.30
2019-05-21T14:09:27.776Z,14.20
2019-05-21T14:11:55.307Z,14.20
2019-05-21T14:14:23.151Z,14.10
2019-05-21T14:16:50.685Z,14.20
2019-05-21T14:19:18.261Z,14.10
2019-05-21T14:21:46.145Z,14.20
2019-05-21T14:24:13.712Z,14.10
2019-05-21T14:26:41.561Z,14.40
2019-05-21T14:29:09.429Z,14.90
2019-05-21T14:31:37.021Z,15.40
2019-05-21T14:34:04.884Z,15.60
2019-05-21T14:36:32.516Z,15.70
2019-05-21T14:39:00.090Z,15.60
2019-05-21T14:41:27.937Z,15.20
2019-05-21T14:43:55.805Z,15.00
2019-05-21T14:46:23.341Z,14.90
2019-05-21T14:48:50.964Z,14.80
2019-05-21T14:51:18.499Z,14.60
2019-05-21T14:53:46.833Z,14.60
2019-05-21T14:56:14.377Z,14.60
2019-05-21T14:58:41.949Z,14.50
2019-05-21T15:01:09.477Z,14.50
2019-05-21T15:03:37.304Z,14.50
2019-05-21T15:06:04.836Z,14.40
2019-05-21T15:08:32.396Z,14.40
2019-05-21T15:10:59.935Z,14.50
2019-05-21T15:13:27.497Z,14.40
2019-05-21T15:15:55.031Z,14.40
2019-05-21T15:18:22.711Z,14.30
2019-05-21T15:20:51.952Z,14.30
2019-05-21T15:23:19.669Z,14.40
2019-05-21T15:25:47.210Z,14.50
2019-05-21T15:28:14.773Z,14.50
2019-05-21T15:30:42.330Z,14.50
2019-05-21T15:33:10.173Z,14.50
2019-05-21T15:35:37.749Z,14.50
2019-05-21T15:38:05.286Z,14.50
2019-05-21T15:40:33.157Z,14.50
2019-05-21T15:43:00.719Z,14.50
2019-05-21T15:45:28.265Z,14.40
2019-05-21T15:47:55.809Z,14.40
2019-05-21T15:50:23.432Z,14.40
2019-05-21T15:52:51.215Z,14.40
2019-05-21T15:55:18.773Z,14.40
2019-05-21T15:57:46.309Z,14.40
2019-05-21T16:00:14.046Z,14.40
2019-05-21T16:02:41.585Z,14.30
2019-05-21T16:05:09.150Z,14.30
2019-05-21T16:07:36.689Z,14.40
2019-05-21T16:10:07.254Z,14.30
2019-05-21T16:12:34.789Z,14.30
2019-05-21T16:15:02.558Z,14.40
2019-05-21T16:17:30.301Z,14.40
2019-05-21T16:19:57.879Z,14.20
2019-05-21T16:22:25.660Z,14.30
2019-05-21T16:24:53.234Z,14.40
2019-05-21T16:27:20.775Z,14.30
2019-05-21T16:29:48.337Z,14.30
2019-05-21T16:32:15.876Z,14.40
2019-05-21T16:34:43.494Z,14.40
2019-05-21T16:37:11.056Z,14.50
2019-05-21T16:39:38.609Z,14.50
2019-05-21T16:42:06.153Z,14.50
2019-05-21T16:44:33.948Z,14.40
2019-05-21T16:47:01.511Z,14.50
2019-05-21T16:49:29.069Z,14.40
2019-05-21T16:51:57.097Z,14.40
2019-05-21T16:54:24.661Z,14.40
2019-05-21T16:56:52.525Z,14.50
2019-05-21T16:59:20.061Z,14.50
2019-05-21T17:01:47.634Z,14.60
2019-05-21T17:04:15.173Z,14.60
2019-05-21T17:06:42.749Z,14.50
2019-05-21T17:09:11.357Z,14.50
2019-05-21T17:11:38.932Z,14.50
2019-05-21T17:14:06.777Z,14.50
2019-05-21T17:16:34.344Z,14.50
2019-05-21T17:19:01.881Z,14.50
2019-05-21T17:21:29.489Z,14.50
2019-05-21T17:23:57.265Z,14.50
2019-05-21T17:26:24.836Z,14.40
2019-05-21T17:28:52.376Z,14.30
2019-05-21T17:31:19.940Z,14.30
2019-05-21T17:33:47.576Z,14.20
2019-05-21T17:36:15.152Z,14.20
2019-05-21T17:38:43.289Z,14.20
2019-05-21T17:41:10.864Z,14.30
2019-05-21T17:43:38.436Z,14.30
2019-05-21T17:46:06.277Z,14.30
2019-05-21T17:48:33.813Z,14.30
2019-05-21T17:51:01.711Z,14.30
2019-05-21T17:53:29.251Z,14.20
2019-05-21T17:55:57.129Z,14.40
2019-05-21T17:58:24.707Z,14.30
2019-05-21T18:00:59.805Z,14.30
2019-05-21T18:03:27.698Z,14.40
2019-05-21T18:05:56.167Z,14.40
2019-05-21T18:08:23.844Z,14.40
2019-05-21T18:10:51.652Z,14.30
2019-05-21T18:13:19.396Z,14.30
2019-05-21T18:15:47.251Z,14.30
2019-05-21T18:18:15.210Z,14.30
2019-05-21T18:20:43.113Z,14.30
2019-05-21T18:23:10.867Z,14.30
2019-05-21T18:25:38.657Z,14.30
2019-05-21T18:28:06.504Z,14.20
2019-05-21T18:30:34.113Z,14.30
2019-05-21T18:33:02.305Z,14.30
2019-05-21T18:35:29.844Z,14.20
2019-05-21T18:37:57.424Z,14.20
2019-05-21T18:40:24.964Z,14.30
2019-05-21T18:42:52.544Z,14.30
2019-05-21T18:45:20.089Z,14.20
2019-05-21T18:47:48.495Z,14.20
2019-05-21T18:50:16.032Z,14.20
2019-05-21T18:52:43.604Z,14.20
2019-05-21T18:55:11.213Z,14.20
2019-05-21T18:57:38.781Z,14.20
2019-05-21T19:00:06.693Z,14.30
2019-05-21T19:02:34.276Z,14.30
2019-05-21T19:05:01.906Z,14.30
2019-05-21T19:07:29.776Z,14.00
2019-05-21T19:10:00.762Z,14.00
2019-05-21T19:12:37.490Z,14.10
2019-05-21T19:14:56.058Z,14.20
2019-05-21T19:17:35.185Z,14.20
2019-05-21T19:19:53.215Z,14.10
2019-05-21T19:22:20.749Z,14.00
2019-05-21T19:24:48.326Z,14.10
2019-05-21T19:27:15.861Z,14.00
2019-05-21T19:29:43.441Z,14.00
2019-05-21T19:32:11.020Z,14.10
2019-05-21T19:34:38.599Z,14.00
2019-05-21T19:37:06.144Z,14.00
2019-05-21T19:39:33.720Z,14.00
2019-05-21T19:42:01.270Z,14.10
2019-05-21T19:44:28.829Z,14.00
2019-05-21T19:46:56.364Z,14.00
2019-05-21T19:49:23.941Z,13.90
2019-05-21T19:51:51.669Z,13.90
2019-05-21T19:54:19.300Z,14.10
2019-05-21T19:56:47.265Z,14.10
2019-05-21T19:59:14.916Z,14.20
2019-05-21T20:01:42.750Z,14.10
2019-05-21T20:04:11.884Z,14.20
2019-05-21T20:06:39.497Z,14.10
2019-05-21T20:09:08.701Z,14.10
2019-05-21T20:11:36.978Z,14.10
2019-05-21T20:14:04.542Z,14.10
2019-05-21T20:16:32.904Z,14.10
2019-05-21T20:19:00.985Z,14.10
2019-05-21T20:21:28.888Z,14.20
2019-05-21T20:23:56.428Z,14.10
2019-05-21T20:26:24.666Z,14.10
2019-05-21T20:28:52.568Z,14.00
2019-05-21T20:31:21.141Z,14.00
2019-05-21T20:33:49.849Z,14.10
2019-05-21T20:36:18.180Z,14.00
2019-05-21T20:38:45.984Z,14.10
2019-05-21T20:41:17.534Z,14.00
2019-05-21T20:43:42.982Z,14.00
2019-05-21T20:46:10.613Z,14.00
2019-05-21T20:48:39.005Z,13.90
2019-05-21T20:51:07.325Z,14.00
2019-05-21T20:53:35.134Z,14.00
2019-05-21T20:56:03.269Z,14.00
2019-05-21T20:58:31.283Z,14.10
2019-05-21T21:01:00.714Z,14.00
2019-05-21T21:03:28.620Z,13.90
2019-05-21T21:05:56.195Z,13.90
2019-05-21T21:08:27.558Z,13.80
2019-05-21T21:10:53.570Z,13.90
2019-05-21T21:13:21.143Z,13.80
2019-05-21T21:15:48.890Z,13.90
2019-05-21T21:18:16.842Z,13.80
2019-05-21T21:20:44.605Z,13.70
2019-05-21T21:23:12.148Z,13.80
2019-05-21T21:25:39.885Z,13.90
2019-05-21T21:28:07.532Z,14.00
2019-05-21T21:30:36.265Z,13.90
2019-05-21T21:33:04.236Z,13.90
2019-05-21T21:35:32.919Z,13.90
2019-05-21T21:38:01.635Z,13.90
2019-05-21T21:40:29.222Z,13.90
2019-05-21T21:42:57.360Z,13.90
2019-05-21T21:45:25.169Z,13.80
2019-05-21T21:47:53.276Z,13.80
2019-05-21T21:50:21.463Z,13.90
2019-05-21T21:52:49.033Z,13.90
2019-05-21T21:55:16.606Z,13.90
2019-05-21T21:57:44.145Z,13.90
2019-05-21T22:00:30.249Z,13.90
2019-05-21T22:02:58.329Z,14.00
2019-05-21T22:05:25.868Z,14.00
2019-05-21T22:07:53.884Z,13.90
2019-05-21T22:10:21.421Z,13.90
2019-05-21T22:12:48.973Z,13.80
2019-05-21T22:15:16.881Z,13.90
2019-05-21T22:18:04.416Z,13.90
2019-05-21T22:20:32.148Z,13.80
2019-05-21T22:22:59.697Z,13.90
2019-05-21T22:25:27.228Z,13.90
2019-05-21T22:27:54.777Z,13.90
2019-05-21T22:30:22.981Z,14.00
2019-05-21T22:32:50.529Z,14.00
2019-05-21T22:35:18.305Z,13.90
2019-05-21T22:37:45.857Z,14.00
2019-05-21T22:40:13.665Z,13.90
2019-05-21T22:42:41.208Z,13.90
2019-05-21T22:45:10.393Z,13.90
2019-05-21T22:47:37.937Z,13.80
2019-05-21T22:50:05.649Z,13.90
2019-05-21T22:52:33.196Z,13.90
2019-05-21T22:55:00.727Z,13.90
2019-05-21T22:57:28.295Z,13.80
2019-05-21T22:59:55.857Z,13.80
2019-05-21T23:02:25.053Z,13.80
2019-05-21T23:04:52.790Z,13.90
2019-05-21T23:07:20.398Z,13.90
2019-05-21T23:09:48.133Z,13.90
2019-05-21T23:12:16.113Z,13.90
2019-05-21T23:14:43.687Z,13.80
2019-05-21T23:17:11.804Z,13.80
2019-05-21T23:19:39.533Z,13.80
2019-05-21T23:22:07.492Z,13.90
2019-05-21T23:24:35.196Z,13.90
2019-05-21T23:27:04.404Z,13.90
2019-05-21T23:29:31.943Z,13.80
2019-05-21T23:31:59.506Z,13.90
2019-05-21T23:34:27.413Z,13.80
2019-05-21T23:36:55.950Z,13.90
2019-05-21T23:39:25.293Z,13.90
2019-05-21T23:41:52.864Z,13.80
2019-05-21T23:44:20.453Z,13.90
2019-05-21T23:46:48.009Z,13.90
2019-05-21T23:49:15.550Z,13.80
2019-05-21T23:51:43.109Z,13.70
2019-05-21T23:54:10.814Z,13.80
2019-05-21T23:56:38.385Z,13.80
2019-05-21T23:59:06.313Z,13.80
